Rockville, Minnesota
Current Conditions -  °F | °C
As of 8:53 PM on Friday 28 Nov 2014 (Local Time) from KSTC Reporting Station
Overcast Overcast  
Wind Chill: 13°   Ceiling: 1500
Heat Index: 20°   Visibility: 10mi
Dew Point: 14°   Wind: 5mph
Humidity: 78%   Direction: 100°E
Pressure: 29.74"   Gusts: NA
Location:  45.47°N, 94.34°W
Report Text: KSTC 290253Z 10004KT 10SM OVC015 M07/M10 A2974 RMK AO2 SLP100 T10671100 58022
Loading
Personal Weather Stations






























Interactive Weather Map New forecast layout! Learn more

10-Day Weather Forecast

Advertisements
Track Severe Weather on mobile